Time;durP1;ratioP1;P1;durP2;ratioP2;P2;SDS_P1;SDS_P2;PMS_P1;PMS_P2;Temp;Humidity;BMP_temperature;BMP_pressure;BME280_temperature;BME280_humidity;BME280_pressure;Samples;Min_cycle;Max_cycle;Signal;HPM_P1;HPM_P2
2021/01/07 00:00:05;;;;;;;5.28;2.25;;;;;;;;;;5044781;28;20025;-77
2021/01/07 00:02:31;;;;;;;7.50;3.63;;;;;;;;;;5043658;28;20029;-77
2021/01/07 00:04:57;;;;;;;9.45;3.00;;;;;;;;;;5046025;28;20040;-77
2021/01/07 00:07:23;;;;;;;9.32;3.13;;;;;;;;;;5046978;28;20107;-77
2021/01/07 00:09:49;;;;;;;6.43;2.83;;;;;;;;;;5046514;28;20037;-77
2021/01/07 00:12:15;;;;;;;8.93;3.50;;;;;;;;;;5046838;28;20075;-77
2021/01/07 00:14:41;;;;;;;7.57;3.53;;;;;;;;;;5030562;28;20111;-77
2021/01/07 00:17:07;;;;;;;7.50;3.40;;;;;;;;;;5047931;28;20071;-77
2021/01/07 00:19:33;;;;;;;9.55;3.83;;;;;;;;;;5042129;28;20029;-77
2021/01/07 00:21:59;;;;;;;8.30;3.58;;;;;;;;;;5041673;28;20038;-77
2021/01/07 00:24:25;;;;;;;11.25;3.95;;;;;;;;;;5041089;28;20025;-77
2021/01/07 00:26:51;;;;;;;9.40;4.00;;;;;;;;;;5044119;28;20025;-76
2021/01/07 00:29:17;;;;;;;9.98;4.00;;;;;;;;;;5046012;28;20684;-76
2021/01/07 00:31:43;;;;;;;10.60;3.72;;;;;;;;;;5044558;28;20044;-77
2021/01/07 00:34:09;;;;;;;7.22;2.90;;;;;;;;;;5042211;28;20036;-77
2021/01/07 00:36:35;;;;;;;8.50;3.53;;;;;;;;;;5027957;28;20178;-76
2021/01/07 00:39:01;;;;;;;6.25;2.30;;;;;;;;;;5027268;28;20028;-76
2021/01/07 00:41:27;;;;;;;11.25;2.92;;;;;;;;;;5039991;28;20068;-76
2021/01/07 00:43:53;;;;;;;8.77;2.70;;;;;;;;;;5036089;28;21717;-77
2021/01/07 00:46:20;;;;;;;5.80;2.42;;;;;;;;;;5035099;28;20040;-77
2021/01/07 00:48:47;;;;;;;8.10;2.95;;;;;;;;;;5031494;28;20511;-77
2021/01/07 00:51:13;;;;;;;8.75;2.92;;;;;;;;;;5038663;28;20389;-77
2021/01/07 00:53:39;;;;;;;8.15;2.97;;;;;;;;;;5051442;28;20017;-76
2021/01/07 00:56:05;;;;;;;7.63;2.70;;;;;;;;;;5045979;28;20048;-77
2021/01/07 00:58:31;;;;;;;8.85;2.67;;;;;;;;;;5064303;28;20045;-76
2021/01/07 01:00:57;;;;;;;11.27;3.65;;;;;;;;;;5034133;28;20037;-76
2021/01/07 01:03:23;;;;;;;7.82;2.85;;;;;;;;;;5033711;28;20404;-77
2021/01/07 01:05:50;;;;;;;6.07;2.85;;;;;;;;;;5052341;28;20049;-75
2021/01/07 01:08:16;;;;;;;12.32;3.50;;;;;;;;;;5048319;28;20045;-74
2021/01/07 01:10:46;;;;;;;8.77;3.20;;;;;;;;;;5052293;28;20580;-72
2021/01/07 01:13:12;;;;;;;8.77;3.13;;;;;;;;;;5046722;28;20024;-73
2021/01/07 01:15:38;;;;;;;11.43;3.20;;;;;;;;;;5048274;28;20166;-73
2021/01/07 01:18:05;;;;;;;11.80;3.38;;;;;;;;;;5026533;28;20128;-74
2021/01/07 01:20:31;;;;;;;7.03;2.90;;;;;;;;;;5052235;28;20099;-74
2021/01/07 01:22:57;;;;;;;8.10;2.33;;;;;;;;;;5048476;28;20094;-75
2021/01/07 01:25:23;;;;;;;8.02;2.47;;;;;;;;;;5050480;28;20064;-75
2021/01/07 01:27:49;;;;;;;7.25;2.92;;;;;;;;;;5047556;28;20028;-75
2021/01/07 01:30:16;;;;;;;9.60;2.85;;;;;;;;;;5065882;28;20029;-75
2021/01/07 01:32:42;;;;;;;5.10;1.08;;;;;;;;;;5049715;28;20032;-73
2021/01/07 01:35:09;;;;;;;5.88;0.68;;;;;;;;;;5050601;28;20016;-72
2021/01/07 01:37:36;;;;;;;4.72;0.80;;;;;;;;;;5046012;28;20168;-73
2021/01/07 01:40:03;;;;;;;3.17;0.77;;;;;;;;;;5049852;28;20020;-72
2021/01/07 01:42:29;;;;;;;3.20;0.40;;;;;;;;;;5050731;28;20484;-73
2021/01/07 01:44:55;;;;;;;4.07;0.60;;;;;;;;;;5033100;28;20134;-73
2021/01/07 01:47:22;;;;;;;4.30;0.65;;;;;;;;;;5049927;28;20031;-74
2021/01/07 01:49:51;;;;;;;4.60;0.70;;;;;;;;;;5030982;28;20091;-74
2021/01/07 01:52:21;;;;;;;3.10;0.68;;;;;;;;;;5051457;28;20498;-75
2021/01/07 01:54:47;;;;;;;1.90;0.50;;;;;;;;;;5050360;28;20457;-75
2021/01/07 01:57:13;;;;;;;1.58;0.32;;;;;;;;;;5049669;28;20090;-75
2021/01/07 01:59:40;;;;;;;6.72;0.95;;;;;;;;;;5043496;28;20079;-75
2021/01/07 02:02:14;;;;;;;0.90;0.30;;;;;;;;;;5050418;28;20025;-76
2021/01/07 02:04:40;;;;;;;1.85;0.50;;;;;;;;;;5043740;28;20033;-76
2021/01/07 02:07:12;;;;;;;2.60;0.40;;;;;;;;;;5041409;28;20120;-75
2021/01/07 02:09:38;;;;;;;2.80;0.70;;;;;;;;;;5047616;28;20095;-76
2021/01/07 02:12:04;;;;;;;2.25;0.70;;;;;;;;;;5044146;28;20029;-77
2021/01/07 02:14:30;;;;;;;2.35;0.50;;;;;;;;;;5050499;28;20020;-76
2021/01/07 02:16:57;;;;;;;1.83;0.45;;;;;;;;;;5041815;28;20384;-76
2021/01/07 02:19:23;;;;;;;3.33;0.50;;;;;;;;;;5046859;28;20665;-76
2021/01/07 02:21:49;;;;;;;1.67;0.52;;;;;;;;;;5051614;28;20260;-75
2021/01/07 02:24:19;;;;;;;3.58;0.50;;;;;;;;;;5059825;28;20079;-76
2021/01/07 02:26:45;;;;;;;1.80;0.40;;;;;;;;;;5027037;28;20043;-75
2021/01/07 02:29:12;;;;;;;5.78;0.55;;;;;;;;;;5046817;28;20063;-75
2021/01/07 02:31:38;;;;;;;1.95;0.40;;;;;;;;;;5029472;28;20116;-76
2021/01/07 02:34:04;;;;;;;4.28;0.50;;;;;;;;;;5064625;28;20025;-75
2021/01/07 02:36:30;;;;;;;3.80;0.70;;;;;;;;;;5051135;28;20103;-75
2021/01/07 02:38:56;;;;;;;5.35;0.85;;;;;;;;;;5046504;28;20055;-74
2021/01/07 02:41:22;;;;;;;5.32;0.88;;;;;;;;;;5030412;28;20040;-73
2021/01/07 02:43:48;;;;;;;2.33;0.70;;;;;;;;;;5049556;28;20025;-72
2021/01/07 02:46:15;;;;;;;9.02;0.98;;;;;;;;;;5049095;28;20095;-72
2021/01/07 02:48:41;;;;;;;3.78;0.70;;;;;;;;;;5045250;28;20028;-72
2021/01/07 02:51:07;;;;;;;3.35;0.70;;;;;;;;;;5042930;28;20041;-73
2021/01/07 02:53:33;;;;;;;3.63;0.75;;;;;;;;;;5046068;28;20025;-73
2021/01/07 02:55:59;;;;;;;4.07;0.65;;;;;;;;;;5050250;28;20041;-73
2021/01/07 02:58:25;;;;;;;3.53;0.40;;;;;;;;;;5045568;28;20032;-73
2021/01/07 03:00:51;;;;;;;3.60;0.63;;;;;;;;;;5050345;28;20028;-74
2021/01/07 03:03:17;;;;;;;9.57;1.35;;;;;;;;;;5048771;28;20036;-75
2021/01/07 03:05:43;;;;;;;5.13;0.60;;;;;;;;;;5051579;28;20021;-75
2021/01/07 03:08:09;;;;;;;2.97;0.43;;;;;;;;;;5045908;28;20049;-75
2021/01/07 03:10:35;;;;;;;3.00;0.50;;;;;;;;;;5043953;28;20052;-75
2021/01/07 03:13:01;;;;;;;7.45;0.68;;;;;;;;;;5029501;28;20406;-75
2021/01/07 03:15:27;;;;;;;2.80;0.45;;;;;;;;;;5049822;28;20032;-75
2021/01/07 03:17:53;;;;;;;3.20;0.93;;;;;;;;;;5043345;28;20028;-75
2021/01/07 03:20:19;;;;;;;6.93;0.77;;;;;;;;;;5048910;28;20029;-75
2021/01/07 03:22:45;;;;;;;5.40;0.70;;;;;;;;;;5047098;28;20031;-75
2021/01/07 03:25:12;;;;;;;3.75;0.70;;;;;;;;;;5049336;28;20037;-75
2021/01/07 03:27:38;;;;;;;5.78;1.25;;;;;;;;;;5042512;28;20241;-75
2021/01/07 03:30:08;;;;;;;4.38;0.73;;;;;;;;;;5030469;28;20033;-75
2021/01/07 03:32:35;;;;;;;3.17;0.77;;;;;;;;;;5059427;28;20051;-74
2021/01/07 03:35:01;;;;;;;4.45;0.90;;;;;;;;;;5047432;28;20028;-74
2021/01/07 03:37:27;;;;;;;5.53;1.83;;;;;;;;;;5033478;28;20301;-75
2021/01/07 03:39:53;;;;;;;6.85;1.17;;;;;;;;;;5048849;28;20036;-74
2021/01/07 03:42:19;;;;;;;4.78;0.88;;;;;;;;;;5045094;28;20021;-73
2021/01/07 03:44:45;;;;;;;9.85;1.27;;;;;;;;;;5049183;28;20017;-73
2021/01/07 03:47:11;;;;;;;4.25;0.80;;;;;;;;;;5038066;28;20040;-73
2021/01/07 03:49:37;;;;;;;5.97;1.35;;;;;;;;;;5046286;28;20155;-74
2021/01/07 03:52:03;;;;;;;6.32;1.00;;;;;;;;;;5052928;28;20025;-74
2021/01/07 03:54:29;;;;;;;6.85;0.88;;;;;;;;;;5053663;28;20025;-74
2021/01/07 03:56:55;;;;;;;3.00;1.00;;;;;;;;;;5052651;28;20025;-75
2021/01/07 03:59:21;;;;;;;5.70;0.95;;;;;;;;;;5049754;28;20028;-75
2021/01/07 04:01:48;;;;;;;6.25;1.02;;;;;;;;;;5052231;28;20020;-75
2021/01/07 04:04:14;;;;;;;6.03;0.95;;;;;;;;;;5048874;28;20120;-75
2021/01/07 04:06:40;;;;;;;3.80;0.93;;;;;;;;;;5048246;28;20025;-75
2021/01/07 04:09:06;;;;;;;3.42;0.80;;;;;;;;;;5049630;28;20025;-75
2021/01/07 04:11:32;;;;;;;7.22;1.30;;;;;;;;;;5034895;28;20021;-75
2021/01/07 04:13:58;;;;;;;2.53;0.70;;;;;;;;;;5052950;28;20092;-75
2021/01/07 04:16:25;;;;;;;5.30;1.05;;;;;;;;;;5049567;28;20036;-75
2021/01/07 04:18:51;;;;;;;8.75;1.30;;;;;;;;;;5031550;28;20025;-75
2021/01/07 04:21:18;;;;;;;3.30;0.75;;;;;;;;;;5053173;28;20033;-75
2021/01/07 04:23:44;;;;;;;5.00;0.95;;;;;;;;;;5066970;28;20029;-75
2021/01/07 04:26:10;;;;;;;4.32;0.80;;;;;;;;;;5047304;28;20036;-75
2021/01/07 04:28:36;;;;;;;5.97;1.00;;;;;;;;;;5048464;28;20396;-75
2021/01/07 04:31:02;;;;;;;3.90;0.90;;;;;;;;;;5052945;28;20507;-76
2021/01/07 04:33:28;;;;;;;6.82;1.00;;;;;;;;;;5050668;28;20044;-76
2021/01/07 04:35:54;;;;;;;7.45;0.98;;;;;;;;;;5052027;28;20017;-76
2021/01/07 04:38:20;;;;;;;3.97;0.95;;;;;;;;;;5050196;28;20013;-76
2021/01/07 04:40:46;;;;;;;6.47;0.80;;;;;;;;;;5050960;28;20028;-76
2021/01/07 04:43:12;;;;;;;3.67;0.77;;;;;;;;;;5052182;28;20024;-75
2021/01/07 04:45:38;;;;;;;4.70;0.93;;;;;;;;;;5050516;28;20016;-76
2021/01/07 04:48:06;;;;;;;4.28;1.00;;;;;;;;;;5049111;28;20039;-76
2021/01/07 04:50:32;;;;;;;4.55;0.70;;;;;;;;;;5049344;28;20417;-76
2021/01/07 04:52:58;;;;;;;3.20;0.82;;;;;;;;;;5033528;28;20025;-76
2021/01/07 04:55:24;;;;;;;2.45;0.70;;;;;;;;;;5049373;28;20052;-76
2021/01/07 04:57:50;;;;;;;4.45;0.88;;;;;;;;;;5049612;28;20025;-76
2021/01/07 05:00:16;;;;;;;5.28;0.93;;;;;;;;;;5047905;28;20074;-76
2021/01/07 05:02:43;;;;;;;3.22;0.90;;;;;;;;;;5051934;28;20099;-76
2021/01/07 05:05:09;;;;;;;7.07;1.05;;;;;;;;;;5047018;28;20102;-76
2021/01/07 05:07:38;;;;;;;3.80;1.00;;;;;;;;;;5049616;28;20067;-76
2021/01/07 05:10:06;;;;;;;5.43;1.02;;;;;;;;;;5049779;28;20091;-76
2021/01/07 05:12:32;;;;;;;5.75;0.88;;;;;;;;;;5050557;28;20114;-76
2021/01/07 05:14:58;;;;;;;4.07;1.13;;;;;;;;;;5051867;28;20079;-76
2021/01/07 05:17:24;;;;;;;5.57;3.65;;;;;;;;;;5049559;28;20112;-76
2021/01/07 05:19:50;;;;;;;4.20;1.05;;;;;;;;;;5051774;28;20030;-76
2021/01/07 05:22:16;;;;;;;7.93;1.38;;;;;;;;;;5051550;28;20063;-76
2021/01/07 05:24:42;;;;;;;6.47;1.10;;;;;;;;;;5049649;28;20017;-77
2021/01/07 05:27:09;;;;;;;4.68;0.95;;;;;;;;;;5050594;28;20028;-76
2021/01/07 05:29:37;;;;;;;3.78;1.00;;;;;;;;;;5049984;28;20036;-76
2021/01/07 05:32:03;;;;;;;6.22;1.20;;;;;;;;;;5050919;28;20373;-76
2021/01/07 05:34:29;;;;;;;6.43;1.13;;;;;;;;;;5034356;28;20036;-76
2021/01/07 05:36:59;;;;;;;7.35;0.95;;;;;;;;;;5033749;28;20017;-76
2021/01/07 05:39:33;;;;;;;4.97;1.15;;;;;;;;;;5048057;28;20040;-76
2021/01/07 05:42:01;;;;;;;4.05;1.00;;;;;;;;;;5051406;28;20048;-76
2021/01/07 05:44:27;;;;;;;10.82;1.38;;;;;;;;;;5048879;28;20033;-76
2021/01/07 05:46:53;;;;;;;8.20;1.50;;;;;;;;;;5052114;28;20064;-76
2021/01/07 05:49:20;;;;;;;7.20;1.48;;;;;;;;;;5045774;28;20029;-76
2021/01/07 05:51:47;;;;;;;10.27;1.38;;;;;;;;;;5049939;28;20024;-77
2021/01/07 05:54:14;;;;;;;10.48;1.90;;;;;;;;;;5050975;28;20354;-77
2021/01/07 05:56:41;;;;;;;8.55;1.40;;;;;;;;;;5051351;28;20009;-76
2021/01/07 05:59:08;;;;;;;5.88;1.35;;;;;;;;;;5051148;28;20029;-77
2021/01/07 06:01:35;;;;;;;7.28;1.33;;;;;;;;;;5031795;28;20033;-77
2021/01/07 06:04:02;;;;;;;8.90;2.05;;;;;;;;;;5050408;28;20059;-76
2021/01/07 06:06:30;;;;;;;12.98;1.65;;;;;;;;;;5050354;28;20044;-76
2021/01/07 06:08:56;;;;;;;9.38;1.70;;;;;;;;;;5024699;28;20045;-76
2021/01/07 06:11:26;;;;;;;11.65;1.48;;;;;;;;;;5049980;28;20028;-76
2021/01/07 06:13:52;;;;;;;17.38;3.92;;;;;;;;;;5050713;28;20043;-77
2021/01/07 06:16:22;;;;;;;15.90;1.83;;;;;;;;;;5047329;28;20025;-77
2021/01/07 06:18:48;;;;;;;11.57;2.28;;;;;;;;;;5048748;28;20025;-77
2021/01/07 06:21:15;;;;;;;20.55;3.55;;;;;;;;;;5056548;28;20033;-80
2021/01/07 06:23:42;;;;;;;17.27;2.60;;;;;;;;;;5040939;28;20484;-76
2021/01/07 06:26:21;;;;;;;18.50;2.92;;;;;;;;;;5047998;28;20055;-75
2021/01/07 06:28:51;;;;;;;15.45;2.88;;;;;;;;;;5037216;28;20024;-77
2021/01/07 06:31:17;;;;;;;13.43;2.20;;;;;;;;;;5028880;28;20409;-76
2021/01/07 06:33:44;;;;;;;16.77;2.35;;;;;;;;;;5026899;28;20090;-76
2021/01/07 06:36:10;;;;;;;13.85;2.17;;;;;;;;;;5043423;28;20036;-76
2021/01/07 06:38:36;;;;;;;10.73;2.17;;;;;;;;;;5041729;28;20125;-77
2021/01/07 06:41:03;;;;;;;12.57;1.90;;;;;;;;;;5046177;28;20029;-77
2021/01/07 06:43:29;;;;;;;11.18;1.58;;;;;;;;;;5045066;28;20082;-77
2021/01/07 06:45:56;;;;;;;11.93;2.50;;;;;;;;;;5044047;28;20029;-77
2021/01/07 06:48:27;;;;;;;14.65;1.98;;;;;;;;;;5018078;28;20017;-77
2021/01/07 06:50:54;;;;;;;9.82;2.17;;;;;;;;;;5042885;28;20028;-77
2021/01/07 06:53:21;;;;;;;9.68;1.90;;;;;;;;;;5045621;28;20551;-78
2021/01/07 06:56:05;;;;;;;11.23;2.42;;;;;;;;;;5044487;28;20089;-77
2021/01/07 06:58:33;;;;;;;16.95;2.50;;;;;;;;;;5037136;28;20148;-77
2021/01/07 07:01:00;;;;;;;16.02;2.25;;;;;;;;;;5040197;28;20032;-77
2021/01/07 07:03:26;;;;;;;7.15;1.95;;;;;;;;;;5041565;28;20060;-78
2021/01/07 07:05:55;;;;;;;13.85;2.47;;;;;;;;;;5041708;28;20035;-78
2021/01/07 07:08:34;;;;;;;11.85;2.53;;;;;;;;;;5036602;28;20530;-76
2021/01/07 07:11:02;;;;;;;15.68;2.55;;;;;;;;;;5035459;28;20032;-78
2021/01/07 07:13:31;;;;;;;12.02;1.80;;;;;;;;;;5025921;28;20021;-80
2021/01/07 07:16:01;;;;;;;14.63;2.17;;;;;;;;;;5041039;28;20028;-78
2021/01/07 07:18:34;;;;;;;13.00;1.45;;;;;;;;;;5036649;28;20116;-78
2021/01/07 07:21:13;;;;;;;19.00;1.95;;;;;;;;;;5040576;28;20029;-77
2021/01/07 07:23:41;;;;;;;12.80;2.30;;;;;;;;;;5042911;28;20029;-76
2021/01/07 07:26:09;;;;;;;12.73;2.22;;;;;;;;;;5042100;28;20051;-76
2021/01/07 07:28:35;;;;;;;12.07;1.85;;;;;;;;;;5041742;28;20029;-76
2021/01/07 07:31:01;;;;;;;7.82;1.55;;;;;;;;;;5024692;28;20123;-75
2021/01/07 07:33:35;;;;;;;9.80;1.25;;;;;;;;;;5057063;28;20427;-77
2021/01/07 07:36:01;;;;;;;8.88;1.70;;;;;;;;;;5042849;28;20021;-76
2021/01/07 07:38:35;;;;;;;7.40;1.98;;;;;;;;;;5038495;28;20112;-75
2021/01/07 07:41:08;;;;;;;14.50;2.58;;;;;;;;;;5042870;28;20035;-77
2021/01/07 07:43:34;;;;;;;14.23;2.10;;;;;;;;;;5027899;28;20033;-74
2021/01/07 07:46:01;;;;;;;15.90;1.90;;;;;;;;;;5053879;28;20115;-75
2021/01/07 07:48:28;;;;;;;14.35;1.83;;;;;;;;;;5039147;28;20115;-76
2021/01/07 07:51:04;;;;;;;20.73;2.17;;;;;;;;;;5025467;28;20044;-75
2021/01/07 07:53:30;;;;;;;8.32;1.63;;;;;;;;;;5041125;28;20033;-76
2021/01/07 07:55:56;;;;;;;12.73;2.22;;;;;;;;;;5043165;28;20029;-77
2021/01/07 07:58:22;;;;;;;12.80;2.33;;;;;;;;;;5040890;28;20119;-77
2021/01/07 08:00:49;;;;;;;9.32;2.20;;;;;;;;;;5043589;28;20017;-76
2021/01/07 08:03:22;;;;;;;14.93;1.70;;;;;;;;;;5042967;28;20029;-76
2021/01/07 08:05:48;;;;;;;11.48;2.28;;;;;;;;;;5042426;28;20021;-76
2021/01/07 08:08:21;;;;;;;10.70;1.90;;;;;;;;;;5038496;28;20047;-74
2021/01/07 08:10:48;;;;;;;16.55;3.45;;;;;;;;;;5039701;28;20510;-75
2021/01/07 08:13:14;;;;;;;11.05;2.00;;;;;;;;;;5043423;28;20140;-77
2021/01/07 08:15:46;;;;;;;12.93;1.55;;;;;;;;;;5043177;28;20021;-75
2021/01/07 08:18:16;;;;;;;17.85;2.72;;;;;;;;;;5041084;28;20029;-76
2021/01/07 08:20:42;;;;;;;19.67;4.07;;;;;;;;;;5037719;28;20499;-76
2021/01/07 08:23:11;;;;;;;10.15;2.15;;;;;;;;;;5041596;28;20022;-74
2021/01/07 08:25:41;;;;;;;9.23;1.70;;;;;;;;;;5045794;28;20056;-80
2021/01/07 08:28:13;;;;;;;13.45;1.77;;;;;;;;;;5021429;28;20095;-74
2021/01/07 08:30:42;;;;;;;14.32;2.13;;;;;;;;;;5043797;28;20082;-75
2021/01/07 08:33:10;;;;;;;8.32;1.83;;;;;;;;;;5042002;28;20025;-76
2021/01/07 08:35:37;;;;;;;7.10;1.65;;;;;;;;;;5044490;28;20452;-75
2021/01/07 08:38:03;;;;;;;11.57;2.33;;;;;;;;;;5027896;28;20029;-81
2021/01/07 08:40:31;;;;;;;7.18;1.60;;;;;;;;;;5047343;28;20031;-76
2021/01/07 08:42:58;;;;;;;11.48;1.95;;;;;;;;;;5046433;28;20063;-75
2021/01/07 08:45:28;;;;;;;12.32;3.38;;;;;;;;;;5036166;28;20041;-78
2021/01/07 08:48:04;;;;;;;11.05;2.20;;;;;;;;;;5046448;28;20504;-75
2021/01/07 08:50:32;;;;;;;18.60;2.40;;;;;;;;;;5047962;28;20037;-77
2021/01/07 08:52:58;;;;;;;8.60;1.55;;;;;;;;;;5048890;28;20025;-75
2021/01/07 08:55:43;;;;;;;9.85;2.13;;;;;;;;;;5040320;28;20041;-75
2021/01/07 08:58:09;;;;;;;15.27;2.30;;;;;;;;;;5045740;28;20036;-75
2021/01/07 09:00:35;;;;;;;12.10;2.20;;;;;;;;;;5047651;28;20029;-75
2021/01/07 09:03:02;;;;;;;11.00;2.58;;;;;;;;;;5043704;28;20114;-75
2021/01/07 09:05:29;;;;;;;9.80;1.90;;;;;;;;;;5044597;28;21127;-77
2021/01/07 09:08:11;;;;;;;13.60;2.15;;;;;;;;;;5040674;28;20056;-76
2021/01/07 09:10:37;;;;;;;;;;;;;;;;;;5044582;28;20040;-76
2021/01/07 09:13:16;;;;;;;12.55;2.13;;;;;;;;;;5027099;28;19944;-76
2021/01/07 09:15:42;;;;;;;13.70;1.88;;;;;;;;;;5047780;28;20017;-76
2021/01/07 09:18:08;;;;;;;11.73;1.67;;;;;;;;;;5041128;28;20091;-75
2021/01/07 09:20:34;;;;;;;17.33;1.85;;;;;;;;;;5044073;28;20031;-77
2021/01/07 09:23:03;;;;;;;11.48;2.13;;;;;;;;;;5045689;28;20037;-76
2021/01/07 09:25:29;;;;;;;9.60;1.95;;;;;;;;;;5044768;28;20024;-76
2021/01/07 09:27:56;;;;;;;8.48;2.13;;;;;;;;;;5043427;28;21354;-77
2021/01/07 09:30:23;;;;;;;11.38;1.63;;;;;;;;;;5042852;28;20115;-76
2021/01/07 09:32:49;;;;;;;12.60;1.75;;;;;;;;;;5044806;28;20025;-77
2021/01/07 09:35:15;;;;;;;12.00;2.00;;;;;;;;;;5043632;28;20025;-77
2021/01/07 09:37:41;;;;;;;9.07;2.15;;;;;;;;;;5023340;28;20017;-78
2021/01/07 09:40:07;;;;;;;10.52;1.63;;;;;;;;;;5043558;28;20052;-76
2021/01/07 09:42:34;;;;;;;12.35;1.83;;;;;;;;;;5043363;28;20176;-77
2021/01/07 09:45:01;;;;;;;14.38;2.17;;;;;;;;;;5046210;28;20507;-76
2021/01/07 09:47:27;;;;;;;9.93;1.70;;;;;;;;;;5039943;28;20110;-74
2021/01/07 09:49:53;;;;;;;6.90;1.42;;;;;;;;;;5057135;28;20029;-76
2021/01/07 09:52:19;;;;;;;12.55;2.00;;;;;;;;;;5045644;28;20032;-75
2021/01/07 09:54:45;;;;;;;12.55;3.28;;;;;;;;;;5043951;28;20102;-76
2021/01/07 09:57:12;;;;;;;18.02;1.92;;;;;;;;;;5027417;28;20033;-77
2021/01/07 09:59:38;;;;;;;10.77;2.30;;;;;;;;;;5044892;28;20027;-78
2021/01/07 10:02:05;;;;;;;12.15;2.05;;;;;;;;;;5048312;28;20082;-78
2021/01/07 10:04:32;;;;;;;11.05;1.38;;;;;;;;;;5043655;28;20043;-84
2021/01/07 10:06:58;;;;;;;9.60;1.63;;;;;;;;;;5046744;28;20060;-77
2021/01/07 10:09:24;;;;;;;10.88;2.03;;;;;;;;;;5041444;28;20055;-75
2021/01/07 10:11:51;;;;;;;14.18;1.98;;;;;;;;;;5047257;28;20305;-74
2021/01/07 10:14:17;;;;;;;8.40;2.25;;;;;;;;;;5048775;28;20044;-73
2021/01/07 10:17:04;;;;;;;8.02;1.58;;;;;;;;;;5051312;28;20040;-75
2021/01/07 10:19:31;;;;;;;9.40;1.65;;;;;;;;;;5046484;28;20059;-74
2021/01/07 10:22:00;;;;;;;10.38;2.33;;;;;;;;;;5033262;28;20047;-77
2021/01/07 10:24:26;;;;;;;7.85;1.50;;;;;;;;;;5048318;28;20544;-76
2021/01/07 10:27:00;;;;;;;11.43;1.70;;;;;;;;;;5049756;28;20025;-76
2021/01/07 10:29:27;;;;;;;8.90;1.50;;;;;;;;;;5039969;28;20017;-75
2021/01/07 10:31:54;;;;;;;14.52;1.90;;;;;;;;;;5044158;28;20034;-75
2021/01/07 10:34:20;;;;;;;10.25;1.80;;;;;;;;;;5044385;28;20024;-78
2021/01/07 10:36:51;;;;;;;13.00;1.23;;;;;;;;;;5047906;28;20564;-76
2021/01/07 10:39:19;;;;;;;7.40;1.90;;;;;;;;;;5042666;28;20025;-76
2021/01/07 10:41:45;;;;;;;12.23;2.30;;;;;;;;;;5036360;28;20028;-76
2021/01/07 10:44:12;;;;;;;9.00;1.50;;;;;;;;;;5050374;28;20029;-75
2021/01/07 10:46:42;;;;;;;7.07;1.75;;;;;;;;;;5047252;28;20040;-76
2021/01/07 10:49:12;;;;;;;8.57;1.55;;;;;;;;;;5040435;28;20021;-77
2021/01/07 10:51:46;;;;;;;12.43;1.40;;;;;;;;;;5036292;28;20026;-77
2021/01/07 10:54:19;;;;;;;9.73;1.52;;;;;;;;;;5046075;28;20480;-76
2021/01/07 10:56:45;;;;;;;6.30;1.40;;;;;;;;;;5046187;28;20017;-83
2021/01/07 10:59:30;;;;;;;9.30;1.52;;;;;;;;;;5043517;28;20071;-74
2021/01/07 11:02:14;;;;;;;11.93;1.75;;;;;;;;;;5056166;28;20029;-76
2021/01/07 11:04:40;;;;;;;8.98;1.50;;;;;;;;;;5041346;28;20032;-75
2021/01/07 11:07:39;;;;;;;8.63;1.17;;;;;;;;;;5032342;28;20037;-76
2021/01/07 11:10:06;;;;;;;10.65;2.40;;;;;;;;;;4976722;28;20819;-75
2021/01/07 11:12:40;;;;;;;16.17;2.35;;;;;;;;;;5029011;28;20040;-75
2021/01/07 11:15:11;;;;;;;16.42;2.28;;;;;;;;;;5043425;28;20101;-76
2021/01/07 11:17:38;;;;;;;7.68;1.60;;;;;;;;;;5044605;28;20531;-77
2021/01/07 11:20:08;;;;;;;9.98;1.98;;;;;;;;;;5048252;28;20087;-74
2021/01/07 11:22:35;;;;;;;11.93;2.00;;;;;;;;;;5048385;28;20092;-75
2021/01/07 11:25:01;;;;;;;7.95;1.60;;;;;;;;;;5048336;28;20527;-75
2021/01/07 11:27:28;;;;;;;9.13;1.33;;;;;;;;;;5044057;28;20317;-77
2021/01/07 11:29:55;;;;;;;11.52;1.67;;;;;;;;;;5047455;28;20040;-74
2021/01/07 11:32:22;;;;;;;12.43;1.70;;;;;;;;;;5046333;28;20163;-76
2021/01/07 11:34:49;;;;;;;7.55;1.77;;;;;;;;;;5034016;28;20313;-75
2021/01/07 11:37:31;;;;;;;12.38;1.67;;;;;;;;;;5045568;28;20048;-77
2021/01/07 11:39:57;;;;;;;;;;;;;;;;;;5045275;28;20258;-77
2021/01/07 11:42:43;;;;;;;12.48;1.92;;;;;;;;;;5045625;28;19937;-75
2021/01/07 11:45:12;;;;;;;10.88;1.60;;;;;;;;;;5045910;28;20037;-75
2021/01/07 11:47:45;;;;;;;10.43;1.80;;;;;;;;;;5045514;28;20048;-74
2021/01/07 11:50:14;;;;;;;20.90;2.15;;;;;;;;;;5047939;28;20036;-75
2021/01/07 11:52:42;;;;;;;15.10;1.83;;;;;;;;;;5048711;28;20036;-75
2021/01/07 11:55:11;;;;;;;12.45;1.52;;;;;;;;;;5048263;28;20039;-74
2021/01/07 11:57:40;;;;;;;14.50;2.03;;;;;;;;;;5044045;28;20114;-75
2021/01/07 12:00:11;;;;;;;18.98;2.13;;;;;;;;;;5045527;28;20373;-75
2021/01/07 12:02:37;;;;;;;9.57;2.40;;;;;;;;;;5046445;28;20098;-74
2021/01/07 12:05:03;;;;;;;13.35;2.25;;;;;;;;;;5045807;28;20532;-77
2021/01/07 12:07:37;;;;;;;9.68;1.73;;;;;;;;;;5046321;28;20068;-75
2021/01/07 12:10:04;;;;;;;11.73;2.20;;;;;;;;;;5041903;28;20064;-74
2021/01/07 12:12:49;;;;;;;13.40;2.55;;;;;;;;;;5051128;28;20100;-75
2021/01/07 12:15:16;;;;;;;15.32;2.08;;;;;;;;;;5050140;28;20071;-75
2021/01/07 12:17:42;;;;;;;9.02;1.30;;;;;;;;;;5048965;28;20095;-74
2021/01/07 12:20:09;;;;;;;15.05;1.90;;;;;;;;;;5048364;28;20028;-76
2021/01/07 12:22:35;;;;;;;9.93;1.92;;;;;;;;;;5051774;28;20040;-75
2021/01/07 12:25:03;;;;;;;17.45;2.53;;;;;;;;;;5051712;28;20242;-75
2021/01/07 12:27:29;;;;;;;16.95;2.38;;;;;;;;;;5034230;28;20032;-74
2021/01/07 12:29:55;;;;;;;15.85;2.65;;;;;;;;;;5033849;28;20511;-75
2021/01/07 12:32:27;;;;;;;14.80;2.03;;;;;;;;;;5053389;28;20025;-76
2021/01/07 12:34:53;;;;;;;13.75;2.28;;;;;;;;;;5050768;28;20036;-76
2021/01/07 12:37:20;;;;;;;12.25;2.10;;;;;;;;;;5050742;28;20029;-74
2021/01/07 12:39:55;;;;;;;10.18;2.42;;;;;;;;;;5027861;28;20029;-75
2021/01/07 12:42:30;;;;;;;12.27;1.50;;;;;;;;;;5050301;28;20127;-75
2021/01/07 12:44:57;;;;;;;8.23;1.80;;;;;;;;;;5046236;28;20029;-76
2021/01/07 12:47:24;;;;;;;7.13;1.65;;;;;;;;;;5035832;28;20577;-74
2021/01/07 12:49:51;;;;;;;12.93;2.10;;;;;;;;;;5046144;28;20029;-74
2021/01/07 12:52:18;;;;;;;8.60;1.50;;;;;;;;;;5048546;28;20121;-74
2021/01/07 12:54:44;;;;;;;7.07;1.42;;;;;;;;;;5048745;28;20044;-74
2021/01/07 12:57:20;;;;;;;5.05;1.17;;;;;;;;;;5065038;28;20040;-75
2021/01/07 12:59:52;;;;;;;5.65;1.00;;;;;;;;;;5048257;28;20087;-75
2021/01/07 13:02:18;;;;;;;;;;;;;;;;;;5047451;28;20032;-74
2021/01/07 13:05:04;;;;;;;9.18;2.15;;;;;;;;;;5044637;28;20357;-76
2021/01/07 13:07:32;;;;;;;6.07;1.15;;;;;;;;;;5028490;28;20124;-75
2021/01/07 13:10:02;;;;;;;7.13;1.25;;;;;;;;;;5057857;28;20123;-76
2021/01/07 13:12:28;;;;;;;5.97;1.27;;;;;;;;;;5048436;28;20151;-75
2021/01/07 13:14:54;;;;;;;8.32;1.35;;;;;;;;;;5043542;28;20150;-75
2021/01/07 13:17:20;;;;;;;10.40;1.42;;;;;;;;;;5044509;28;20040;-76
2021/01/07 13:19:47;;;;;;;8.13;1.00;;;;;;;;;;5026644;28;20127;-74
2021/01/07 13:22:14;;;;;;;12.10;1.95;;;;;;;;;;5041164;28;20065;-75
2021/01/07 13:24:40;;;;;;;9.40;1.70;;;;;;;;;;5027085;28;20050;-75
2021/01/07 13:27:06;;;;;;;11.13;1.63;;;;;;;;;;5046416;28;20029;-74
2021/01/07 13:29:32;;;;;;;6.65;1.58;;;;;;;;;;5026961;28;20457;-75
2021/01/07 13:31:58;;;;;;;9.45;2.17;;;;;;;;;;5044562;28;20025;-76
2021/01/07 13:34:25;;;;;;;5.22;1.38;;;;;;;;;;5040850;28;20021;-74
2021/01/07 13:36:51;;;;;;;7.50;1.52;;;;;;;;;;5042445;28;20025;-76
2021/01/07 13:39:17;;;;;;;5.57;1.23;;;;;;;;;;5042569;28;20021;-75
2021/01/07 13:41:45;;;;;;;8.10;1.20;;;;;;;;;;5044964;28;20111;-75
2021/01/07 13:44:12;;;;;;;8.02;1.40;;;;;;;;;;5027648;28;20032;-74
2021/01/07 13:46:41;;;;;;;9.13;1.85;;;;;;;;;;5045733;28;20525;-75
2021/01/07 13:49:08;;;;;;;11.65;1.25;;;;;;;;;;5031864;28;20021;-78
2021/01/07 13:51:34;;;;;;;7.55;1.63;;;;;;;;;;5047595;28;20029;-74
2021/01/07 13:54:01;;;;;;;14.63;1.85;;;;;;;;;;5048002;28;20021;-76
2021/01/07 13:56:27;;;;;;;4.65;1.30;;;;;;;;;;5046320;28;20005;-75
2021/01/07 13:58:54;;;;;;;8.48;1.70;;;;;;;;;;5029977;28;20028;-76
2021/01/07 14:01:20;;;;;;;7.93;1.80;;;;;;;;;;5049274;28;20079;-78
2021/01/07 14:03:46;;;;;;;10.00;1.40;;;;;;;;;;5045696;28;20320;-77
2021/01/07 14:06:12;;;;;;;4.80;1.50;;;;;;;;;;5046436;28;20166;-76
2021/01/07 14:08:49;;;;;;;7.63;1.45;;;;;;;;;;5043738;28;20049;-75
2021/01/07 14:11:18;;;;;;;8.05;2.10;;;;;;;;;;5046481;28;20037;-77
2021/01/07 14:13:45;;;;;;;9.32;1.50;;;;;;;;;;5065061;28;20052;-77
2021/01/07 14:16:11;;;;;;;4.90;1.58;;;;;;;;;;5046143;28;20028;-77
2021/01/07 14:18:37;;;;;;;7.95;1.38;;;;;;;;;;5042879;28;20029;-77
2021/01/07 14:21:03;;;;;;;8.13;1.70;;;;;;;;;;5045020;28;20118;-77
2021/01/07 14:23:31;;;;;;;11.63;2.35;;;;;;;;;;5045560;28;20075;-78
2021/01/07 14:26:03;;;;;;;9.15;1.65;;;;;;;;;;5028121;28;20033;-80
2021/01/07 14:28:33;;;;;;;7.93;1.75;;;;;;;;;;5046734;28;20033;-77
2021/01/07 14:31:01;;;;;;;7.43;2.17;;;;;;;;;;5065814;28;20033;-77
2021/01/07 14:33:29;;;;;;;10.20;2.10;;;;;;;;;;5058245;28;20025;-78
2021/01/07 14:35:56;;;;;;;7.10;1.85;;;;;;;;;;5053383;28;20017;-77
2021/01/07 14:38:23;;;;;;;11.88;2.00;;;;;;;;;;5053524;28;20025;-77
2021/01/07 14:40:50;;;;;;;10.95;2.75;;;;;;;;;;5056396;28;20031;-77